This is the latest recevied weather packets stored in our database for station/object K1ADM. If no packets are shown the sender has not sent any weather packets the latest 10 day(s).
| Time | Temp. | Humidity | Pressure | Rain* | Wind** | Luminosity | Snow |
|---|---|---|---|---|---|---|---|
| 1777310702 | 23.89° C | 38% | 1022.9 hPa | 0 mm | - | - | - |
| 1777310103 | 23.89° C | 36% | 1022.9 hPa | 0 mm | - | - | - |
| 1777309203 | 21.67° C | 39% | 1023.2 hPa | 0 mm | - | - | - |
| 1777308602 | 22.78° C | 37% | 1023.2 hPa | 0 mm | - | - | - |
| 1777305902 | 22.22° C | 40% | 1023.5 hPa | 0 mm | - | - | - |
| 1777305002 | 21.67° C | 39% | 1023.7 hPa | 0 mm | - | - | - |
| 1777303802 | 21.11° C | 42% | 1023.8 hPa | 0 mm | - | - | - |
| 1777303503 | 21.67° C | 40% | 1024 hPa | 0 mm | - | - | - |
| 1777303202 | 21.11° C | 41% | 1024 hPa | 0 mm | - | - | - |
| 1777300502 | 19.44° C | 42% | 1023.9 hPa | 0 mm | - | - | - |
| 1777300203 | 20° C | 42% | 1023.9 hPa | 0 mm | - | - | - |
| 1777298703 | 18.89° C | 46% | 1024.1 hPa | 0 mm | - | - | - |
| 1777296003 | 17.22° C | 49% | 1024.1 hPa | 0 mm | - | - | - |
| 1777293902 | 15.56° C | 53% | 1024 hPa | 0 mm | - | - | - |
| 1777291503 | 13.33° C | 56% | 1023.8 hPa | 0 mm | - | - | - |
| 1777290603 | 12.22° C | 59% | 1023.7 hPa | 0 mm | - | - | - |
| 1777290302 | 11.11° C | 64% | 1023.7 hPa | 0 mm | - | - | - |
| 1777288203 | 9.44° C | 67% | 1023.5 hPa | 0 mm | - | - | - |
| 1777287903 | 8.89° C | 68% | 1023.5 hPa | 0 mm | - | - | - |
| 1777282203 | 6.11° C | 75% | 1022.5 hPa | 0 mm | - | - | - |
| 1777281303 | 6.11° C | 75% | 1022.3 hPa | 0 mm | - | - | - |
| 1777280403 | 6.11° C | 75% | 1022.1 hPa | 0 mm | - | - | - |
| 1777278603 | 8.33° C | 66% | 1021.8 hPa | 0 mm | - | - | - |
| 1777278003 | 8.33° C | 66% | 1021.6 hPa | 0 mm | - | - | - |
| 1777276803 | 7.22° C | 68% | 1021.7 hPa | 0 mm | - | - | - |
* Rain latest hour (hover to see other rain measurements)
** Current wind speed in m/s (hover to see current wind gust speed)